Time;durP1;ratioP1;P1;durP2;ratioP2;P2;SDS_P1;SDS_P2;PMS_P1;PMS_P2;Temp;Humidity;BMP_temperature;BMP_pressure;BME280_temperature;BME280_humidity;BME280_pressure;Samples;Min_cycle;Max_cycle;Signal;HPM_P1;HPM_P2
2021/12/17 12:21:00;;;;;;;0.00;0.00;;;7.00;99.90;;;;;;5067900;28;20390;-67
2021/12/17 12:23:36;;;;;;;0.00;0.00;;;7.00;99.90;;;;;;5068451;28;20123;-67
2021/12/17 12:26:02;;;;;;;0.00;0.00;;;7.00;99.90;;;;;;5077071;28;20114;-67
2021/12/17 12:28:49;;;;;;;0.00;0.00;;;7.00;99.90;;;;;;5068235;28;20461;-67
2021/12/17 12:31:27;;;;;;;0.00;0.00;;;7.10;99.90;;;;;;5068889;28;20368;-67
2021/12/17 12:36:52;;;;;;;0.00;0.00;;;7.10;99.90;;;;;;5009361;28;20026;-67
2021/12/17 12:39:34;;;;;;;0.00;0.00;;;7.10;99.90;;;;;;5009622;28;20030;-67
2021/12/17 12:42:03;;;;;;;0.00;0.00;;;7.20;99.90;;;;;;5008911;28;20377;-67
2021/12/17 12:44:44;;;;;;;0.00;0.00;;;7.20;99.90;;;;;;5007763;28;20160;-67
2021/12/17 12:47:25;;;;;;;0.00;0.00;;;7.20;99.90;;;;;;5023055;28;20021;-67
2021/12/17 12:50:04;;;;;;;0.00;0.00;;;7.20;99.90;;;;;;4997061;28;20465;-67
2021/12/17 12:52:30;;;;;;;0.00;0.00;;;7.20;99.90;;;;;;5010070;28;20042;-67
2021/12/17 12:55:03;;;;;;;0.00;0.00;;;7.20;99.90;;;;;;5010498;28;20030;-68
2021/12/17 12:57:35;;;;;;;0.00;0.00;;;7.10;99.90;;;;;;5008742;28;20328;-67
2021/12/17 13:00:06;;;;;;;0.00;0.00;;;7.10;99.90;;;;;;5015391;28;20484;-68
2021/12/17 13:02:32;;;;;;;0.00;0.00;;;7.10;99.90;;;;;;5015243;28;20042;-67
2021/12/17 13:04:59;;;;;;;0.00;0.00;;;7.10;99.90;;;;;;5010373;28;20376;-68
2021/12/17 13:07:36;;;;;;;0.00;0.00;;;7.10;99.90;;;;;;5018215;28;20026;-68
2021/12/17 13:10:14;;;;;;;0.00;0.00;;;7.10;99.90;;;;;;5013975;28;20046;-67
2021/12/17 13:12:41;;;;;;;0.00;0.00;;;7.20;99.90;;;;;;4999311;28;20050;-68
2021/12/17 13:15:19;;;;;;;0.00;0.00;;;7.20;99.90;;;;;;5007290;28;20548;-68
2021/12/17 13:21:05;;;;;;;0.00;0.00;;;7.20;99.90;;;;;;5012085;28;20049;-67
2021/12/17 13:23:37;;;;;;;0.00;0.00;;;7.20;99.90;;;;;;4997924;28;20073;-68
2021/12/17 13:26:09;;;;;;;0.00;0.00;;;7.20;99.90;;;;;;5010614;28;20442;-68
2021/12/17 13:28:45;;;;;;;0.00;0.00;;;7.20;99.90;;;;;;5007900;28;20036;-68
2021/12/17 13:31:10;;;;;;;0.00;0.00;;;7.20;99.90;;;;;;5003541;28;20026;-67
2021/12/17 13:33:37;;;;;;;0.00;0.00;;;7.30;99.90;;;;;;5001821;28;20029;-68
2021/12/17 13:36:11;;;;;;;0.00;0.00;;;7.30;99.90;;;;;;5001142;28;20041;-68
2021/12/17 13:38:36;;;;;;;0.00;0.00;;;7.30;99.90;;;;;;5003300;28;20033;-67
2021/12/17 13:41:09;;;;;;;0.00;0.00;;;7.40;99.90;;;;;;5000849;28;20034;-68
2021/12/17 13:43:38;;;;;;;0.00;0.00;;;7.40;99.90;;;;;;4998680;28;20819;-67
2021/12/17 13:46:05;;;;;;;0.00;0.00;;;7.30;99.90;;;;;;4998783;28;20457;-68
2021/12/17 13:48:32;;;;;;;0.00;0.00;;;7.40;99.90;;;;;;4995440;28;20113;-68
2021/12/17 13:50:57;;;;;;;0.00;0.00;;;7.40;99.90;;;;;;4994297;28;20536;-68
2021/12/17 13:53:23;;;;;;;0.00;0.00;;;7.40;99.90;;;;;;4995326;28;20025;-68
2021/12/17 13:55:50;;;;;;;0.00;0.00;;;7.40;99.90;;;;;;4994759;28;20030;-68
2021/12/17 13:58:19;;;;;;;0.00;0.00;;;7.40;99.90;;;;;;4994809;28;20018;-68
2021/12/17 14:00:51;;;;;;;0.00;0.00;;;7.40;99.90;;;;;;4997111;28;20465;-68
2021/12/17 14:03:20;;;;;;;0.00;0.00;;;7.40;99.90;;;;;;5001139;28;20044;-67
2021/12/17 14:05:51;;;;;;;0.00;0.00;;;7.40;99.90;;;;;;5000961;28;20030;-67
2021/12/17 14:08:21;;;;;;;0.00;0.00;;;7.40;99.90;;;;;;5000315;28;20026;-67
2021/12/17 14:10:49;;;;;;;0.00;0.00;;;7.40;99.90;;;;;;4994190;28;20027;-68
2021/12/17 14:13:23;;;;;;;0.00;0.00;;;7.40;99.90;;;;;;5004476;28;20377;-67
2021/12/17 14:15:49;;;;;;;;;;;7.40;99.90;;;;;;4996011;28;20026;-67
2021/12/17 14:18:17;;;;;;;0.00;0.00;;;7.40;99.90;;;;;;4994687;28;19902;-67
2021/12/17 14:20:46;;;;;;;0.00;0.00;;;7.30;99.90;;;;;;4994225;28;20026;-68
2021/12/17 14:23:15;;;;;;;0.00;0.00;;;7.40;99.90;;;;;;4994981;28;20042;-67
2021/12/17 14:25:50;;;;;;;0.00;0.00;;;7.40;99.90;;;;;;4994731;28;20130;-68
2021/12/17 14:28:36;;;;;;;0.00;0.00;;;7.40;99.90;;;;;;4996974;28;20022;-67
2021/12/17 14:31:09;;;;;;;0.00;0.00;;;7.30;99.90;;;;;;4993833;28;20050;-68
2021/12/17 14:33:45;;;;;;;0.00;0.00;;;7.30;99.90;;;;;;4994448;28;20018;-68
2021/12/17 14:36:26;;;;;;;0.00;0.00;;;7.30;99.90;;;;;;4995279;28;20429;-67
2021/12/17 14:39:00;;;;;;;0.00;0.00;;;7.30;99.90;;;;;;4998783;28;20033;-68
2021/12/17 14:41:33;;;;;;;0.00;0.00;;;7.30;99.90;;;;;;4994550;28;20109;-68
2021/12/17 14:44:12;;;;;;;0.00;0.00;;;7.30;99.90;;;;;;4994291;28;20038;-67
2021/12/17 14:46:57;;;;;;;0.00;0.00;;;7.30;99.90;;;;;;4995346;28;20026;-68
2021/12/17 15:00:33;;;;;;;0.00;0.00;;;7.30;99.90;;;;;;4992781;28;20564;-67
2021/12/17 15:03:07;;;;;;;0.00;0.00;;;7.30;99.90;;;;;;4995051;28;20117;-67
2021/12/17 15:05:33;;;;;;;0.00;0.00;;;7.20;99.90;;;;;;4996385;28;20038;-67
2021/12/17 15:08:00;;;;;;;0.00;0.00;;;7.20;99.90;;;;;;4994672;28;20424;-68
2021/12/17 15:10:26;;;;;;;0.00;0.00;;;7.20;99.90;;;;;;4992562;28;20485;-67
2021/12/17 15:12:59;;;;;;;0.00;0.00;;;7.20;99.90;;;;;;4993656;28;20377;-67
2021/12/17 15:15:28;;;;;;;0.00;0.00;;;7.20;99.90;;;;;;4996897;28;20029;-67
2021/12/17 15:17:55;;;;;;;0.00;0.00;;;7.20;99.90;;;;;;4993726;28;20022;-68
2021/12/17 15:20:24;;;;;;;0.00;0.00;;;7.20;99.90;;;;;;4995002;28;20053;-68
2021/12/17 15:22:59;;;;;;;0.00;0.00;;;7.20;99.90;;;;;;4995501;28;20026;-67
2021/12/17 15:25:26;;;;;;;0.00;0.00;;;7.10;99.90;;;;;;4996226;28;20374;-67
2021/12/17 15:27:52;;;;;;;0.00;0.00;;;7.10;99.90;;;;;;5005552;28;20481;-68
2021/12/17 15:30:32;;;;;;;0.00;0.00;;;7.10;99.90;;;;;;4994403;28;20030;-68
2021/12/17 15:33:00;;;;;;;0.00;0.00;;;7.10;99.90;;;;;;5005046;28;20034;-68
2021/12/17 15:35:27;;;;;;;0.00;0.00;;;7.10;99.90;;;;;;4994566;28;20049;-67
2021/12/17 15:37:56;;;;;;;0.00;0.00;;;7.20;99.90;;;;;;4993105;28;20026;-68
2021/12/17 15:40:24;;;;;;;0.00;0.00;;;7.10;99.90;;;;;;4983216;28;20461;-68
2021/12/17 15:42:51;;;;;;;0.00;0.00;;;7.20;99.90;;;;;;4993522;28;20165;-68
2021/12/17 15:45:17;;;;;;;0.00;0.00;;;7.10;99.90;;;;;;4993258;28;20111;-68
2021/12/17 15:47:43;;;;;;;0.00;0.00;;;7.20;99.90;;;;;;4993331;28;20029;-67
2021/12/17 15:50:11;;;;;;;0.00;0.00;;;7.20;99.90;;;;;;4992359;28;20052;-68
2021/12/17 15:52:43;;;;;;;0.00;0.00;;;7.20;99.90;;;;;;4992754;28;20470;-68
2021/12/17 15:55:09;;;;;;;0.00;0.00;;;7.20;99.90;;;;;;4993145;28;20458;-67
2021/12/17 15:57:35;;;;;;;0.00;0.00;;;7.20;99.90;;;;;;4992827;28;20028;-68
2021/12/17 16:00:00;;;;;;;0.00;0.00;;;7.30;99.90;;;;;;4992711;28;20045;-68
2021/12/17 16:02:26;;;;;;;0.00;0.00;;;7.20;99.90;;;;;;4992876;28;20561;-67
2021/12/17 16:04:51;;;;;;;0.00;0.00;;;7.20;99.90;;;;;;4993077;28;20109;-67
2021/12/17 16:07:17;;;;;;;0.00;0.00;;;7.20;99.90;;;;;;4992547;28;20046;-68
2021/12/17 16:22:36;;;;;;;0.00;0.00;;;7.10;99.90;;;;;;4992713;28;20028;-68
2021/12/17 16:25:02;;;;;;;0.00;0.00;;;7.10;99.90;;;;;;4992738;28;20109;-67
2021/12/17 16:27:28;;;;;;;0.00;0.00;;;7.10;99.90;;;;;;4992448;28;20477;-67
2021/12/17 16:29:54;;;;;;;0.00;0.00;;;7.10;99.90;;;;;;4992488;28;20030;-67
2021/12/17 16:32:20;;;;;;;0.00;0.00;;;7.10;99.90;;;;;;4991974;28;20027;-67
2021/12/17 16:34:45;;;;;;;0.00;0.00;;;7.10;99.90;;;;;;4992520;28;20030;-68
2021/12/17 16:37:11;;;;;;;0.00;0.00;;;7.10;99.90;;;;;;4992407;28;20486;-68
2021/12/17 16:39:36;;;;;;;0.00;0.00;;;7.10;99.90;;;;;;4992463;28;20521;-68
2021/12/17 16:42:04;;;;;;;0.00;0.00;;;7.00;99.90;;;;;;4991922;28;20458;-68
2021/12/17 16:45:20;;;;;;;0.00;0.00;;;7.00;99.90;;;;;;4992435;28;20037;-67
2021/12/17 16:47:26;;;;;;;0.00;0.00;;;7.00;99.90;;;;;;4991312;28;20042;-68
2021/12/17 16:49:51;;;;;;;0.00;0.00;;;7.00;99.90;;;;;;4992397;28;20515;-67
2021/12/17 16:52:17;;;;;;;0.00;0.00;;;7.00;99.90;;;;;;4991897;28;20027;-68
2021/12/17 16:54:42;;;;;;;0.00;0.00;;;7.00;99.90;;;;;;4991994;28;20030;-68
2021/12/17 16:57:08;;;;;;;0.00;0.00;;;7.00;99.90;;;;;;4992253;28;20031;-68
2021/12/17 16:59:34;;;;;;;0.00;0.00;;;7.00;99.90;;;;;;4994942;28;20425;-68
2021/12/17 17:02:00;;;;;;;0.00;0.00;;;7.00;99.90;;;;;;4992953;28;20436;-67
2021/12/17 17:04:25;;;;;;;0.00;0.00;;;7.00;99.90;;;;;;4988697;28;20030;-68
2021/12/17 17:06:51;;;;;;;0.00;0.00;;;7.00;99.90;;;;;;4991970;28;20046;-68
2021/12/17 17:09:16;;;;;;;0.00;0.00;;;7.00;99.90;;;;;;4993725;28;20054;-68
2021/12/17 17:11:44;;;;;;;0.00;0.00;;;7.00;99.90;;;;;;4992618;28;20085;-67
2021/12/17 17:14:11;;;;;;;0.00;0.00;;;7.00;99.90;;;;;;4993912;28;20122;-68
2021/12/17 17:16:39;;;;;;;0.00;0.00;;;7.00;99.90;;;;;;4992562;28;20472;-68
2021/12/17 17:19:05;;;;;;;0.00;0.00;;;7.00;99.90;;;;;;4993505;28;20381;-68
2021/12/17 17:21:31;;;;;;;0.00;0.00;;;6.90;99.90;;;;;;4993762;28;20037;-68
2021/12/17 17:24:00;;;;;;;0.00;0.00;;;6.90;99.90;;;;;;4991006;28;20026;-68
2021/12/17 17:26:26;;;;;;;0.00;0.00;;;6.90;99.90;;;;;;4991665;28;20023;-68
2021/12/17 17:28:51;;;;;;;0.00;0.00;;;6.90;99.90;;;;;;4992397;28;20110;-68
2021/12/17 17:31:17;;;;;;;0.00;0.00;;;6.90;99.90;;;;;;4991890;28;20110;-68
2021/12/17 17:33:48;;;;;;;0.00;0.00;;;6.90;99.90;;;;;;4992622;28;20084;-68
2021/12/17 17:36:19;;;;;;;0.00;0.00;;;6.90;99.90;;;;;;4992788;28;20026;-68
2021/12/17 17:38:45;;;;;;;0.00;0.00;;;6.90;99.90;;;;;;4992814;28;20065;-68
2021/12/17 17:41:10;;;;;;;0.00;0.00;;;6.90;99.90;;;;;;4991942;28;20105;-68
2021/12/17 17:43:36;;;;;;;0.00;0.00;;;6.90;99.90;;;;;;4995416;28;20037;-68
2021/12/17 17:46:02;;;;;;;0.00;0.00;;;6.90;99.90;;;;;;4995404;28;20089;-68
2021/12/17 17:48:28;;;;;;;0.00;0.00;;;6.90;99.90;;;;;;4991724;28;20458;-68
2021/12/17 17:50:54;;;;;;;0.00;0.00;;;6.80;99.90;;;;;;4990746;28;20065;-68
2021/12/17 17:53:19;;;;;;;0.00;0.00;;;6.80;99.90;;;;;;4992883;28;20374;-68
2021/12/17 17:55:45;;;;;;;0.00;0.00;;;6.80;99.90;;;;;;4991803;28;20046;-68
2021/12/17 17:58:11;;;;;;;0.00;0.00;;;6.70;99.90;;;;;;4992524;28;20026;-68
2021/12/17 18:00:38;;;;;;;0.00;0.00;;;6.70;99.90;;;;;;4991083;28;20034;-68
2021/12/17 18:03:04;;;;;;;0.00;0.00;;;6.70;99.90;;;;;;4991994;28;20378;-68
2021/12/17 18:05:29;;;;;;;0.00;0.00;;;6.60;99.90;;;;;;4991246;28;20030;-68
2021/12/17 18:07:55;;;;;;;0.00;0.00;;;6.60;99.90;;;;;;4991832;28;20462;-68
2021/12/17 18:10:21;;;;;;;0.00;0.00;;;6.60;99.90;;;;;;4991270;28;20132;-68
2021/12/17 18:12:53;;;;;;;0.00;0.00;;;6.60;99.90;;;;;;4992544;28;20509;-68
2021/12/17 18:15:19;;;;;;;0.00;0.00;;;6.60;99.90;;;;;;4992152;28;20030;-68
2021/12/17 18:17:46;;;;;;;0.00;0.00;;;6.70;99.90;;;;;;4991823;28;20371;-68
2021/12/17 18:20:13;;;;;;;0.00;0.00;;;6.70;99.90;;;;;;4990997;28;20061;-68
2021/12/17 18:22:40;;;;;;;0.00;0.00;;;6.60;99.90;;;;;;4991296;28;20032;-68
2021/12/17 18:25:07;;;;;;;0.00;0.00;;;6.70;99.90;;;;;;4990807;28;20128;-68
2021/12/17 18:27:34;;;;;;;0.00;0.00;;;6.70;99.90;;;;;;4991734;28;20053;-67
2021/12/17 18:29:59;;;;;;;0.00;0.00;;;6.70;99.90;;;;;;4990515;28;20023;-68
2021/12/17 18:32:25;;;;;;;0.00;0.00;;;6.70;99.90;;;;;;4997464;28;20065;-68
2021/12/17 18:34:50;;;;;;;0.00;0.00;;;6.70;99.90;;;;;;4991953;28;20029;-69
2021/12/17 18:37:16;;;;;;;0.00;0.00;;;6.70;99.90;;;;;;4998516;28;20022;-68
2021/12/17 18:39:42;;;;;;;0.00;0.00;;;6.70;99.90;;;;;;4991343;28;20469;-68
2021/12/17 18:44:53;;;;;;;0.00;0.00;;;6.70;99.90;;;;;;4991345;28;20347;-69
2021/12/17 18:47:18;;;;;;;0.00;0.00;;;6.70;99.90;;;;;;4993100;28;20026;-69
2021/12/17 18:49:44;;;;;;;0.00;0.00;;;6.70;99.90;;;;;;5001495;28;20454;-69
2021/12/17 18:52:10;;;;;;;0.00;0.00;;;6.70;99.90;;;;;;4990462;28;20382;-69
2021/12/17 18:54:36;;;;;;;0.00;0.00;;;6.70;99.90;;;;;;4995049;28;20129;-68
2021/12/17 18:57:02;;;;;;;0.00;0.00;;;6.70;99.90;;;;;;4990638;28;20101;-68
2021/12/17 18:59:28;;;;;;;0.00;0.00;;;6.80;99.90;;;;;;4990982;28;20054;-68
2021/12/17 19:01:53;;;;;;;0.00;0.00;;;6.80;99.90;;;;;;4990515;28;20190;-68
2021/12/17 19:04:19;;;;;;;0.00;0.00;;;6.80;99.90;;;;;;4991007;28;20030;-68
2021/12/17 19:06:49;;;;;;;0.00;0.00;;;6.80;99.90;;;;;;4990873;28;20422;-68
2021/12/17 19:09:15;;;;;;;0.00;0.00;;;6.80;99.90;;;;;;4991065;28;20062;-68
2021/12/17 19:11:41;;;;;;;0.00;0.00;;;6.80;99.90;;;;;;4989982;28;20045;-68
2021/12/17 19:14:07;;;;;;;0.00;0.00;;;6.80;99.90;;;;;;5005791;28;20450;-68
2021/12/17 19:16:34;;;;;;;0.00;0.00;;;6.80;99.90;;;;;;4990757;28;20015;-68
2021/12/17 19:21:38;;;;;;;0.00;0.00;;;6.80;99.90;;;;;;4989827;28;20030;-68
2021/12/17 19:24:07;;;;;;;0.00;0.00;;;6.80;99.90;;;;;;4979028;28;20740;-69
2021/12/17 19:26:33;;;;;;;0.00;0.00;;;6.80;99.90;;;;;;4993600;28;20500;-68
2021/12/17 19:29:00;;;;;;;0.00;0.00;;;6.90;99.90;;;;;;4990334;28;20026;-68
2021/12/17 19:31:26;;;;;;;0.00;0.00;;;6.80;99.90;;;;;;4989949;28;20497;-68
2021/12/17 19:33:53;;;;;;;0.00;0.00;;;6.80;99.90;;;;;;4990664;28;20045;-68
2021/12/17 19:36:19;;;;;;;0.00;0.00;;;6.90;99.90;;;;;;4991393;28;20140;-68
2021/12/17 19:38:44;;;;;;;0.00;0.00;;;6.90;99.90;;;;;;4990379;28;20031;-69
2021/12/17 19:41:11;;;;;;;0.00;0.00;;;6.90;99.90;;;;;;4991805;28;20815;-69
2021/12/17 19:43:37;;;;;;;0.00;0.00;;;6.90;99.90;;;;;;4990108;28;20454;-68
2021/12/17 19:46:06;;;;;;;0.00;0.00;;;6.90;99.90;;;;;;4990433;28;20441;-68
2021/12/17 19:48:36;;;;;;;0.00;0.00;;;6.80;99.90;;;;;;4990488;28;20026;-68
2021/12/17 19:51:05;;;;;;;0.00;0.00;;;6.80;99.90;;;;;;4991747;28;20037;-68
2021/12/17 19:53:31;;;;;;;0.00;0.00;;;6.80;99.90;;;;;;4990411;28;20087;-69
2021/12/17 19:55:56;;;;;;;0.00;0.00;;;6.80;99.90;;;;;;4990462;28;20092;-68
2021/12/17 19:58:22;;;;;;;0.00;0.00;;;6.80;99.90;;;;;;4991734;28;20030;-68
2021/12/17 20:00:49;;;;;;;0.00;0.00;;;6.80;99.90;;;;;;4991181;28;20046;-68
2021/12/17 20:03:16;;;;;;;0.00;0.00;;;6.80;99.90;;;;;;4989984;28;20037;-68
2021/12/17 20:05:41;;;;;;;0.00;0.00;;;6.80;99.90;;;;;;4989879;28;20038;-70
2021/12/17 20:08:11;;;;;;;0.00;0.00;;;6.80;99.90;;;;;;4990007;28;20064;-68
2021/12/17 20:10:37;;;;;;;0.00;0.00;;;6.80;99.90;;;;;;4989171;28;20054;-68
2021/12/17 20:13:04;;;;;;;0.00;0.00;;;6.80;99.90;;;;;;4989761;28;20359;-68
2021/12/17 20:15:30;;;;;;;0.00;0.00;;;6.80;99.90;;;;;;4993424;28;20010;-68
2021/12/17 20:17:56;;;;;;;0.00;0.00;;;6.80;99.90;;;;;;4989738;28;20030;-68
2021/12/17 20:20:22;;;;;;;0.00;0.00;;;6.80;99.90;;;;;;4989223;28;20112;-68
2021/12/17 20:22:49;;;;;;;0.00;0.00;;;6.80;99.90;;;;;;4987876;28;20442;-69
2021/12/17 20:25:16;;;;;;;0.00;0.00;;;6.80;99.90;;;;;;4989828;28;20061;-68
2021/12/17 20:27:42;;;;;;;0.00;0.00;;;6.70;99.90;;;;;;4988969;28;20027;-68
2021/12/17 20:30:12;;;;;;;0.00;0.00;;;6.70;99.90;;;;;;4987743;28;20034;-68
2021/12/17 20:32:39;;;;;;;0.00;0.00;;;6.70;99.90;;;;;;4988606;28;20026;-68
2021/12/17 20:35:06;;;;;;;0.00;0.00;;;6.70;99.90;;;;;;4989936;28;21290;-68
2021/12/17 20:37:32;;;;;;;0.00;0.00;;;6.80;99.90;;;;;;4988708;28;20527;-68
2021/12/17 20:39:58;;;;;;;0.00;0.00;;;6.70;99.90;;;;;;4988465;28;20030;-68
2021/12/17 20:42:36;;;;;;;0.00;0.00;;;6.80;99.90;;;;;;4992543;28;20045;-68
2021/12/17 20:45:04;;;;;;;0.00;0.00;;;6.80;99.90;;;;;;4994524;28;20033;-68
2021/12/17 20:47:32;;;;;;;0.00;0.00;;;6.80;99.90;;;;;;4997639;28;20377;-68
2021/12/17 20:49:57;;;;;;;0.00;0.00;;;6.80;99.90;;;;;;4993773;28;20026;-68
2021/12/17 20:52:23;;;;;;;0.00;0.00;;;6.80;99.90;;;;;;4992938;28;20038;-68
2021/12/17 20:54:48;;;;;;;0.00;0.00;;;6.80;99.90;;;;;;4993568;28;20027;-68
2021/12/17 20:57:14;;;;;;;0.00;0.00;;;6.80;99.90;;;;;;4994184;28;20093;-68
2021/12/17 20:59:40;;;;;;;0.00;0.00;;;6.80;99.90;;;;;;5004059;28;20065;-68
2021/12/17 21:02:05;;;;;;;0.00;0.00;;;6.80;99.90;;;;;;4992748;28;20452;-68
2021/12/17 21:04:31;;;;;;;0.00;0.00;;;6.80;99.90;;;;;;4993372;28;20037;-68
2021/12/17 21:06:56;;;;;;;0.00;0.00;;;6.80;99.90;;;;;;4992930;28;20035;-68
2021/12/17 21:09:22;;;;;;;0.00;0.00;;;6.80;99.90;;;;;;4993350;28;20022;-68
2021/12/17 21:11:53;;;;;;;0.00;0.00;;;6.80;99.90;;;;;;4992384;28;20138;-69
2021/12/17 21:14:19;;;;;;;0.00;0.00;;;6.80;99.90;;;;;;4993334;28;20041;-68
2021/12/17 21:16:48;;;;;;;0.00;0.00;;;6.80;99.90;;;;;;4992656;28;20026;-69
2021/12/17 21:19:14;;;;;;;0.00;0.00;;;6.80;99.90;;;;;;4993262;28;20056;-68
2021/12/17 21:21:40;;;;;;;0.00;0.00;;;6.80;99.90;;;;;;4992606;28;20394;-68
2021/12/17 21:24:08;;;;;;;0.00;0.00;;;6.80;99.90;;;;;;5001123;28;20041;-68
2021/12/17 21:26:36;;;;;;;0.00;0.00;;;6.80;99.90;;;;;;4993973;28;20021;-68
2021/12/17 21:29:02;;;;;;;0.00;0.00;;;6.90;99.90;;;;;;4983861;28;20481;-68
2021/12/17 21:31:27;;;;;;;0.00;0.00;;;6.90;99.90;;;;;;4994313;28;20026;-68
2021/12/17 21:33:54;;;;;;;0.00;0.00;;;6.90;99.90;;;;;;5001888;28;20026;-68
2021/12/17 21:36:21;;;;;;;0.00;0.00;;;6.90;99.90;;;;;;4999577;28;20023;-68
2021/12/17 21:38:47;;;;;;;0.00;0.00;;;6.90;99.90;;;;;;4997518;28;20034;-68
2021/12/17 21:41:13;;;;;;;0.00;0.00;;;6.90;99.90;;;;;;4991996;28;20042;-68
2021/12/17 21:43:41;;;;;;;0.00;0.00;;;6.90;99.90;;;;;;4992177;28;20022;-69
2021/12/17 21:46:08;;;;;;;0.00;0.00;;;6.90;99.90;;;;;;4996804;28;20358;-68
2021/12/17 21:48:33;;;;;;;0.00;0.00;;;6.90;99.90;;;;;;4992789;28;20067;-67
2021/12/17 21:50:59;;;;;;;0.00;0.00;;;6.90;99.90;;;;;;4992115;28;20038;-68
2021/12/17 21:53:25;;;;;;;0.00;0.00;;;7.00;99.90;;;;;;4992155;28;20524;-69
2021/12/17 21:55:51;;;;;;;0.00;0.00;;;7.00;99.90;;;;;;4992790;28;20718;-69
2021/12/17 21:58:17;;;;;;;0.00;0.00;;;6.90;99.90;;;;;;4993276;28;20022;-68
2021/12/17 22:00:44;;;;;;;0.00;0.00;;;6.90;99.90;;;;;;4992118;28;20050;-68
2021/12/17 22:03:10;;;;;;;0.00;0.00;;;7.00;99.90;;;;;;4993489;28;20624;-68
2021/12/17 22:05:36;;;;;;;0.00;0.00;;;7.00;99.90;;;;;;4994435;28;20034;-69
2021/12/17 22:08:04;;;;;;;0.00;0.00;;;6.90;99.90;;;;;;4992493;28;20030;-68
2021/12/17 22:10:30;;;;;;;0.00;0.00;;;7.00;99.90;;;;;;4991678;28;20040;-68
2021/12/17 22:12:56;;;;;;;0.00;0.00;;;7.00;99.90;;;;;;4992681;28;20069;-68
2021/12/17 22:15:26;;;;;;;0.00;0.00;;;7.00;99.90;;;;;;4992860;28;20474;-68
2021/12/17 22:17:55;;;;;;;0.00;0.00;;;7.00;99.90;;;;;;4993225;28;20034;-68
2021/12/17 22:20:28;;;;;;;0.00;0.00;;;7.00;99.90;;;;;;4991171;28;20041;-68
2021/12/17 22:22:55;;;;;;;0.00;0.00;;;7.00;99.90;;;;;;4991932;28;20069;-68
2021/12/17 22:25:21;;;;;;;0.00;0.00;;;7.10;99.90;;;;;;4992026;28;20035;-68
2021/12/17 22:27:46;;;;;;;0.00;0.00;;;7.10;99.90;;;;;;4991934;28;20053;-69
2021/12/17 22:30:13;;;;;;;0.00;0.00;;;7.10;99.90;;;;;;4991579;28;20114;-68
2021/12/17 22:32:39;;;;;;;0.00;0.00;;;7.10;99.90;;;;;;4991897;28;20031;-68
2021/12/17 22:35:05;;;;;;;0.00;0.00;;;7.20;99.90;;;;;;4992308;28;20433;-69
2021/12/17 22:37:31;;;;;;;0.00;0.00;;;7.10;99.90;;;;;;5003830;28;20033;-69
2021/12/17 22:39:56;;;;;;;0.00;0.00;;;7.20;99.90;;;;;;4991879;28;20030;-69
2021/12/17 22:42:22;;;;;;;0.00;0.00;;;7.20;99.90;;;;;;4992978;28;20034;-68
2021/12/17 22:44:47;;;;;;;0.00;0.00;;;7.20;99.90;;;;;;4991832;28;20093;-69
2021/12/17 22:47:14;;;;;;;0.00;0.00;;;7.20;99.90;;;;;;4992457;28;20030;-69
2021/12/17 22:49:40;;;;;;;0.00;0.00;;;7.20;99.90;;;;;;4991268;28;20026;-69
2021/12/17 22:52:06;;;;;;;0.00;0.00;;;7.20;99.90;;;;;;4994216;28;20026;-68
2021/12/17 22:54:31;;;;;;;0.00;0.00;;;7.30;99.90;;;;;;4991524;28;20169;-69
2021/12/17 22:56:57;;;;;;;0.00;0.00;;;7.30;99.90;;;;;;4991444;28;20037;-68
2021/12/17 22:59:23;;;;;;;0.00;0.00;;;7.30;99.90;;;;;;4991575;28;20037;-68
2021/12/17 23:01:49;;;;;;;0.00;0.00;;;7.30;99.90;;;;;;4990427;28;20029;-69
2021/12/17 23:04:31;;;;;;;0.00;0.00;;;7.30;99.90;;;;;;4990818;28;20037;-69
2021/12/17 23:07:05;;;;;;;0.00;0.00;;;7.20;99.90;;;;;;4991315;28;20034;-69
2021/12/17 23:09:40;;;;;;;0.00;0.00;;;7.20;99.90;;;;;;4991695;28;20370;-68
2021/12/17 23:12:10;;;;;;;0.00;0.00;;;7.30;99.90;;;;;;4990876;28;20072;-69
2021/12/17 23:14:41;;;;;;;0.00;0.00;;;7.20;99.90;;;;;;5002975;28;20072;-68
2021/12/17 23:17:08;;;;;;;0.00;0.00;;;7.20;99.90;;;;;;4991605;28;20021;-69
2021/12/17 23:19:34;;;;;;;0.00;0.00;;;7.20;99.90;;;;;;4991129;28;20038;-69
2021/12/17 23:22:00;;;;;;;0.00;0.00;;;7.20;99.90;;;;;;4999707;28;20902;-69
2021/12/17 23:24:26;;;;;;;0.00;0.00;;;7.20;99.90;;;;;;4997445;28;20545;-68
2021/12/17 23:26:52;;;;;;;0.00;0.00;;;7.20;99.90;;;;;;4996876;28;20141;-69
2021/12/17 23:29:18;;;;;;;0.00;0.00;;;7.20;99.90;;;;;;4991445;28;20026;-69
2021/12/17 23:31:44;;;;;;;0.00;0.00;;;7.20;99.90;;;;;;4994663;28;20030;-69
2021/12/17 23:36:51;;;;;;;0.00;0.00;;;7.20;99.90;;;;;;5002399;28;20025;-69
2021/12/17 23:39:16;;;;;;;0.00;0.00;;;7.20;99.90;;;;;;4997071;28;20027;-69
2021/12/17 23:41:42;;;;;;;0.00;0.00;;;7.20;99.90;;;;;;4992973;28;20545;-69
2021/12/17 23:44:08;;;;;;;0.00;0.00;;;7.20;99.90;;;;;;4993255;28;20053;-69
2021/12/17 23:46:35;;;;;;;0.00;0.00;;;7.20;99.90;;;;;;4993206;28;20120;-68
2021/12/17 23:49:01;;;;;;;0.00;0.00;;;7.20;99.90;;;;;;4993307;28;20027;-69
2021/12/17 23:51:27;;;;;;;0.00;0.00;;;7.20;99.90;;;;;;4992455;28;20076;-69
2021/12/17 23:53:52;;;;;;;0.00;0.00;;;7.20;99.90;;;;;;4993008;28;20022;-69
2021/12/17 23:56:18;;;;;;;0.00;0.00;;;7.20;99.90;;;;;;4993608;28;20370;-69
2021/12/17 23:58:43;;;;;;;0.00;0.00;;;7.10;99.90;;;;;;4993193;28;20030;-69
